createdAt,value
2023-02-06T00:07:54.463Z,18.8
2023-02-06T00:38:14.251Z,16.4
2023-02-06T01:08:33.607Z,12.3
2023-02-06T01:38:50.646Z,16.7
2023-02-06T02:09:08.661Z,15.3
2023-02-06T02:39:30.192Z,17.7
2023-02-06T03:09:48.756Z,5.4
2023-02-06T03:40:06.000Z,7.7
2023-02-06T04:10:26.172Z,9.7
2023-02-06T04:40:44.792Z,9.6
2023-02-06T05:11:02.545Z,11.3
2023-02-06T05:41:20.596Z,19.5
2023-02-06T06:11:37.971Z,12.6
2023-02-06T06:41:56.615Z,16.1
2023-02-06T07:12:14.991Z,14.4
2023-02-06T07:42:32.435Z,15.2
2023-02-06T08:12:56.378Z,17.2
2023-02-06T09:14:22.213Z,4.6
2023-02-06T10:15:30.934Z,2.4
2023-02-06T10:45:49.867Z,3
2023-02-06T11:16:08.526Z,4.7
2023-02-06T11:46:25.502Z,3.5
2023-02-06T12:16:44.075Z,3.4
2023-02-06T12:47:01.884Z,2.6
2023-02-06T13:17:17.534Z,3.1
2023-02-06T13:47:33.996Z,2.7
2023-02-06T14:17:57.007Z,3.3
2023-02-06T14:48:15.583Z,4.4
2023-02-06T15:18:33.687Z,2.1
2023-02-06T15:48:50.653Z,2
2023-02-06T16:19:07.637Z,6.2
2023-02-06T16:49:25.102Z,1.6
2023-02-06T17:19:42.459Z,7.3
2023-02-06T17:49:59.656Z,8.8
2023-02-06T18:20:19.178Z,8.9
2023-02-06T18:50:38.129Z,5.1
2023-02-06T19:20:57.673Z,7
2023-02-06T19:51:13.240Z,8.9
2023-02-06T20:21:31.253Z,7.8
2023-02-06T20:51:48.644Z,8
2023-02-06T21:22:09.094Z,11.2
2023-02-06T22:23:24.008Z,4.8
2023-02-06T22:53:52.277Z,2
2023-02-06T23:24:16.420Z,2.9
2023-02-06T23:54:36.186Z,2.4
